sensor_id;sensor_type;location;lat;lon;timestamp;pressure;altitude;pressure_sealevel;temperature;humidity
38452;BME280;24231;52.514;13.438;2023-02-07T00:03:02;103815.93;;;-1.21;67.48
38452;BME280;24231;52.514;13.438;2023-02-07T00:05:30;103812.48;;;-1.07;66.10
38452;BME280;24231;52.514;13.438;2023-02-07T00:07:57;103824.00;;;-1.39;66.52
38452;BME280;24231;52.514;13.438;2023-02-07T00:10:24;103816.01;;;-0.43;63.03
38452;BME280;24231;52.514;13.438;2023-02-07T00:12:52;103813.24;;;-0.18;61.73
38452;BME280;24231;52.514;13.438;2023-02-07T00:15:19;103808.32;;;1.03;56.73
38452;BME280;24231;52.514;13.438;2023-02-07T00:17:47;103804.22;;;1.40;55.74
38452;BME280;24231;52.514;13.438;2023-02-07T00:20:15;103812.05;;;-0.33;61.39
38452;BME280;24231;52.514;13.438;2023-02-07T00:22:41;103806.50;;;1.46;56.08
38452;BME280;24231;52.514;13.438;2023-02-07T00:25:09;103803.09;;;1.26;55.87
38452;BME280;24231;52.514;13.438;2023-02-07T00:27:37;103805.67;;;0.52;58.47
38452;BME280;24231;52.514;13.438;2023-02-07T00:30:05;103800.55;;;1.34;55.88
38452;BME280;24231;52.514;13.438;2023-02-07T00:32:33;103796.46;;;1.41;55.22
38452;BME280;24231;52.514;13.438;2023-02-07T00:35:01;103800.09;;;0.49;57.76
38452;BME280;24231;52.514;13.438;2023-02-07T00:37:29;103801.41;;;0.94;55.84
38452;BME280;24231;52.514;13.438;2023-02-07T00:39:56;103796.46;;;1.10;54.96
38452;BME280;24231;52.514;13.438;2023-02-07T00:42:22;103797.94;;;0.83;55.49
38452;BME280;24231;52.514;13.438;2023-02-07T00:44:51;103796.02;;;1.46;54.03
38452;BME280;24231;52.514;13.438;2023-02-07T00:47:19;103798.33;;;1.79;52.96
38452;BME280;24231;52.514;13.438;2023-02-07T00:49:46;103799.01;;;1.32;54.15
38452;BME280;24231;52.514;13.438;2023-02-07T00:52:14;103796.10;;;1.59;53.38
38452;BME280;24231;52.514;13.438;2023-02-07T00:54:40;103798.61;;;1.44;54.09
38452;BME280;24231;52.514;13.438;2023-02-07T00:57:07;103796.36;;;1.42;53.89
38452;BME280;24231;52.514;13.438;2023-02-07T00:59:35;103797.63;;;1.00;54.61
38452;BME280;24231;52.514;13.438;2023-02-07T01:02:02;103795.94;;;1.34;53.42
38452;BME280;24231;52.514;13.438;2023-02-07T01:04:30;103798.94;;;1.17;53.75
38452;BME280;24231;52.514;13.438;2023-02-07T01:06:57;103802.41;;;-0.16;57.33
38452;BME280;24231;52.514;13.438;2023-02-07T01:09:24;103799.61;;;0.91;55.11
38452;BME280;24231;52.514;13.438;2023-02-07T01:12:03;103800.36;;;0.93;54.94
38452;BME280;24231;52.514;13.438;2023-02-07T01:14:30;103797.06;;;0.87;54.01
38452;BME280;24231;52.514;13.438;2023-02-07T01:17:03;103798.19;;;0.92;54.13
38452;BME280;24231;52.514;13.438;2023-02-07T01:19:30;103803.16;;;0.05;56.46
38452;BME280;24231;52.514;13.438;2023-02-07T01:21:57;103799.76;;;0.45;56.14
38452;BME280;24231;52.514;13.438;2023-02-07T01:24:27;103797.66;;;0.87;55.09
38452;BME280;24231;52.514;13.438;2023-02-07T01:26:56;103794.55;;;1.68;52.17
38452;BME280;24231;52.514;13.438;2023-02-07T01:29:24;103790.14;;;1.29;53.88
38452;BME280;24231;52.514;13.438;2023-02-07T01:31:55;103787.96;;;1.37;53.04
38452;BME280;24231;52.514;13.438;2023-02-07T01:34:24;103787.72;;;0.56;55.44
38452;BME280;24231;52.514;13.438;2023-02-07T01:37:12;103785.35;;;0.17;57.51
38452;BME280;24231;52.514;13.438;2023-02-07T01:39:52;103777.05;;;1.60;52.74
38452;BME280;24231;52.514;13.438;2023-02-07T01:42:22;103776.30;;;1.44;52.96
38452;BME280;24231;52.514;13.438;2023-02-07T01:46:04;103776.26;;;1.33;52.96
38452;BME280;24231;52.514;13.438;2023-02-07T01:48:33;103776.28;;;1.61;51.65
38452;BME280;24231;52.514;13.438;2023-02-07T01:51:05;103784.06;;;1.64;51.53
38452;BME280;24231;52.514;13.438;2023-02-07T01:53:35;103782.94;;;1.54;51.66
38452;BME280;24231;52.514;13.438;2023-02-07T01:56:14;103780.89;;;1.44;52.09
38452;BME280;24231;52.514;13.438;2023-02-07T01:58:43;103776.62;;;0.73;53.84
38452;BME280;24231;52.514;13.438;2023-02-07T02:01:16;103776.74;;;1.33;52.47
38452;BME280;24231;52.514;13.438;2023-02-07T02:03:47;103775.88;;;1.33;52.35
38452;BME280;24231;52.514;13.438;2023-02-07T02:06:15;103782.46;;;0.68;54.62
38452;BME280;24231;52.514;13.438;2023-02-07T02:08:59;103776.51;;;1.27;52.86
38452;BME280;24231;52.514;13.438;2023-02-07T02:11:56;103770.75;;;1.64;51.51
38452;BME280;24231;52.514;13.438;2023-02-07T02:14:50;103761.01;;;0.21;55.09
38452;BME280;24231;52.514;13.438;2023-02-07T02:17:26;103767.43;;;-0.44;57.66
38452;BME280;24231;52.514;13.438;2023-02-07T02:20:33;103768.87;;;-1.20;60.56
38452;BME280;24231;52.514;13.438;2023-02-07T02:23:10;103771.99;;;-1.04;60.04
38452;BME280;24231;52.514;13.438;2023-02-07T02:28:18;103773.48;;;-0.51;58.79
38452;BME280;24231;52.514;13.438;2023-02-07T02:31:08;103769.84;;;-0.16;57.35
38452;BME280;24231;52.514;13.438;2023-02-07T02:33:42;103760.47;;;0.89;54.28
38452;BME280;24231;52.514;13.438;2023-02-07T02:36:20;103756.76;;;1.14;53.00
38452;BME280;24231;52.514;13.438;2023-02-07T02:38:55;103758.63;;;0.13;55.18
38452;BME280;24231;52.514;13.438;2023-02-07T02:41:30;103752.67;;;0.76;54.12
38452;BME280;24231;52.514;13.438;2023-02-07T02:44:05;103757.10;;;0.13;55.91
38452;BME280;24231;52.514;13.438;2023-02-07T02:46:36;103755.36;;;-1.34;60.29
38452;BME280;24231;52.514;13.438;2023-02-07T02:49:07;103748.54;;;0.10;57.27
38452;BME280;24231;52.514;13.438;2023-02-07T02:51:37;103747.47;;;-0.66;58.60
38452;BME280;24231;52.514;13.438;2023-02-07T02:54:26;103750.61;;;-1.48;61.64
38452;BME280;24231;52.514;13.438;2023-02-07T02:57:05;103747.57;;;-1.27;61.35
38452;BME280;24231;52.514;13.438;2023-02-07T02:59:50;103745.78;;;-1.21;61.37
38452;BME280;24231;52.514;13.438;2023-02-07T03:02:31;103740.52;;;-0.61;59.36
38452;BME280;24231;52.514;13.438;2023-02-07T03:05:18;103741.20;;;-1.75;62.67
38452;BME280;24231;52.514;13.438;2023-02-07T03:07:58;103744.03;;;-1.62;62.99
38452;BME280;24231;52.514;13.438;2023-02-07T03:10:35;103746.36;;;-1.96;64.18
38452;BME280;24231;52.514;13.438;2023-02-07T03:13:12;103743.50;;;-2.21;65.16
38452;BME280;24231;52.514;13.438;2023-02-07T03:15:49;103742.09;;;-2.50;66.86
38452;BME280;24231;52.514;13.438;2023-02-07T03:18:39;103741.14;;;-2.46;67.08
38452;BME280;24231;52.514;13.438;2023-02-07T03:21:16;103734.97;;;-2.46;68.16
38452;BME280;24231;52.514;13.438;2023-02-07T03:23:47;103726.44;;;-1.97;65.97
38452;BME280;24231;52.514;13.438;2023-02-07T03:26:15;103726.81;;;-1.68;64.36
38452;BME280;24231;52.514;13.438;2023-02-07T03:28:45;103729.80;;;-2.19;65.60
38452;BME280;24231;52.514;13.438;2023-02-07T03:31:16;103727.10;;;-1.44;63.10
38452;BME280;24231;52.514;13.438;2023-02-07T03:33:47;103725.27;;;-0.33;59.20
38452;BME280;24231;52.514;13.438;2023-02-07T03:36:20;103727.80;;;-0.38;58.87
38452;BME280;24231;52.514;13.438;2023-02-07T03:38:49;103732.33;;;0.36;56.07
38452;BME280;24231;52.514;13.438;2023-02-07T03:41:20;103734.51;;;-1.99;63.07
38452;BME280;24231;52.514;13.438;2023-02-07T03:43:50;103724.76;;;-1.36;61.11
38452;BME280;24231;52.514;13.438;2023-02-07T03:46:18;103727.38;;;-0.28;57.30
38452;BME280;24231;52.514;13.438;2023-02-07T03:48:45;103735.97;;;-0.23;57.38
38452;BME280;24231;52.514;13.438;2023-02-07T03:51:13;103729.87;;;-1.06;60.15
38452;BME280;24231;52.514;13.438;2023-02-07T03:53:40;103744.11;;;-2.42;63.30
38452;BME280;24231;52.514;13.438;2023-02-07T03:56:07;103743.88;;;-2.50;65.76
38452;BME280;24231;52.514;13.438;2023-02-07T03:58:34;103740.43;;;-3.13;68.01
38452;BME280;24231;52.514;13.438;2023-02-07T04:01:01;103734.34;;;-1.80;64.79
38452;BME280;24231;52.514;13.438;2023-02-07T04:03:28;103737.25;;;-2.43;65.48
38452;BME280;24231;52.514;13.438;2023-02-07T04:05:56;103741.07;;;-1.94;64.13
38452;BME280;24231;52.514;13.438;2023-02-07T04:08:24;103747.70;;;-2.54;64.69
38452;BME280;24231;52.514;13.438;2023-02-07T04:11:01;103752.81;;;-3.35;69.06
38452;BME280;24231;52.514;13.438;2023-02-07T04:13:29;103749.77;;;-2.84;68.41
38452;BME280;24231;52.514;13.438;2023-02-07T04:15:56;103741.04;;;-0.85;62.14
38452;BME280;24231;52.514;13.438;2023-02-07T04:18:24;103749.14;;;-3.23;67.60
38452;BME280;24231;52.514;13.438;2023-02-07T04:20:51;103749.11;;;-3.19;70.52
38452;BME280;24231;52.514;13.438;2023-02-07T04:23:26;103742.07;;;-0.78;60.55
38452;BME280;24231;52.514;13.438;2023-02-07T04:25:53;103746.63;;;-0.57;58.40
38452;BME280;24231;52.514;13.438;2023-02-07T04:28:20;103745.62;;;-1.97;62.50
38452;BME280;24231;52.514;13.438;2023-02-07T04:30:47;103736.11;;;-0.83;59.12
38452;BME280;24231;52.514;13.438;2023-02-07T04:33:15;103737.78;;;-1.62;61.93
38452;BME280;24231;52.514;13.438;2023-02-07T04:35:42;103731.68;;;-0.81;58.62
38452;BME280;24231;52.514;13.438;2023-02-07T04:38:09;103729.02;;;-1.00;59.19
38452;BME280;24231;52.514;13.438;2023-02-07T04:40:38;103736.39;;;-1.43;62.04
38452;BME280;24231;52.514;13.438;2023-02-07T04:43:05;103741.82;;;-2.61;65.22
38452;BME280;24231;52.514;13.438;2023-02-07T04:45:32;103742.23;;;-1.73;62.12
38452;BME280;24231;52.514;13.438;2023-02-07T04:48:00;103740.17;;;-2.69;65.74
38452;BME280;24231;52.514;13.438;2023-02-07T04:50:27;103737.18;;;-2.93;65.86
38452;BME280;24231;52.514;13.438;2023-02-07T04:52:55;103740.33;;;-2.19;63.96
38452;BME280;24231;52.514;13.438;2023-02-07T04:55:22;103740.02;;;-1.36;59.89
38452;BME280;24231;52.514;13.438;2023-02-07T04:57:49;103742.56;;;-0.58;57.54
38452;BME280;24231;52.514;13.438;2023-02-07T05:00:17;103754.03;;;-2.85;66.21
38452;BME280;24231;52.514;13.438;2023-02-07T05:02:44;103760.95;;;-1.49;61.12
38452;BME280;24231;52.514;13.438;2023-02-07T05:05:14;103749.28;;;-0.40;57.01
38452;BME280;24231;52.514;13.438;2023-02-07T05:07:41;103746.08;;;-0.04;55.92
38452;BME280;24231;52.514;13.438;2023-02-07T05:10:08;103744.23;;;0.06;55.33
38452;BME280;24231;52.514;13.438;2023-02-07T05:12:35;103745.54;;;-0.16;56.23
38452;BME280;24231;52.514;13.438;2023-02-07T05:15:03;103747.81;;;-0.07;55.67
38452;BME280;24231;52.514;13.438;2023-02-07T05:17:30;103748.77;;;-0.14;55.45
38452;BME280;24231;52.514;13.438;2023-02-07T05:19:58;103748.65;;;-0.05;55.03
38452;BME280;24231;52.514;13.438;2023-02-07T05:22:25;103746.66;;;-0.68;56.88
38452;BME280;24231;52.514;13.438;2023-02-07T05:24:53;103743.94;;;-1.02;57.43
38452;BME280;24231;52.514;13.438;2023-02-07T05:27:20;103748.63;;;-1.51;59.50
38452;BME280;24231;52.514;13.438;2023-02-07T05:29:47;103746.91;;;-2.11;61.58
38452;BME280;24231;52.514;13.438;2023-02-07T05:32:16;103750.01;;;-2.39;62.91
38452;BME280;24231;52.514;13.438;2023-02-07T05:34:44;103747.07;;;-1.02;58.48
38452;BME280;24231;52.514;13.438;2023-02-07T05:37:11;103747.38;;;-0.18;55.85
38452;BME280;24231;52.514;13.438;2023-02-07T05:39:38;103744.79;;;-0.88;57.26
38452;BME280;24231;52.514;13.438;2023-02-07T05:42:05;103758.03;;;-2.27;62.36
38452;BME280;24231;52.514;13.438;2023-02-07T05:44:32;103762.22;;;-3.16;68.55
38452;BME280;24231;52.514;13.438;2023-02-07T05:46:59;103765.17;;;-1.46;61.52
38452;BME280;24231;52.514;13.438;2023-02-07T05:49:27;103765.36;;;-1.53;60.80
38452;BME280;24231;52.514;13.438;2023-02-07T05:51:55;103766.48;;;-2.62;63.17
38452;BME280;24231;52.514;13.438;2023-02-07T05:54:22;103767.66;;;-2.27;64.43
38452;BME280;24231;52.514;13.438;2023-02-07T05:56:49;103767.64;;;-1.72;61.92
38452;BME280;24231;52.514;13.438;2023-02-07T05:59:18;103771.89;;;-3.48;68.05
38452;BME280;24231;52.514;13.438;2023-02-07T06:01:45;103771.00;;;-2.70;65.16
38452;BME280;24231;52.514;13.438;2023-02-07T06:04:13;103773.15;;;-0.85;57.98
38452;BME280;24231;52.514;13.438;2023-02-07T06:06:40;103771.44;;;-0.98;58.36
38452;BME280;24231;52.514;13.438;2023-02-07T06:09:08;103775.61;;;-0.93;57.80
38452;BME280;24231;52.514;13.438;2023-02-07T06:11:35;103769.78;;;-0.66;57.09
38452;BME280;24231;52.514;13.438;2023-02-07T06:14:02;103774.81;;;-1.43;57.79
38452;BME280;24231;52.514;13.438;2023-02-07T06:16:28;103772.20;;;-1.25;58.20
38452;BME280;24231;52.514;13.438;2023-02-07T06:18:56;103778.24;;;-1.50;58.85
38452;BME280;24231;52.514;13.438;2023-02-07T06:21:22;103771.97;;;-0.28;55.63
38452;BME280;24231;52.514;13.438;2023-02-07T06:23:50;103785.97;;;-1.21;57.48
38452;BME280;24231;52.514;13.438;2023-02-07T06:26:17;103790.43;;;-0.52;55.66
38452;BME280;24231;52.514;13.438;2023-02-07T06:28:45;103802.32;;;-1.25;57.43
38452;BME280;24231;52.514;13.438;2023-02-07T06:31:12;103795.07;;;-0.91;56.80
38452;BME280;24231;52.514;13.438;2023-02-07T06:33:39;103786.85;;;-0.77;56.81
38452;BME280;24231;52.514;13.438;2023-02-07T06:36:11;103783.24;;;-0.61;55.41
38452;BME280;24231;52.514;13.438;2023-02-07T06:38:38;103784.55;;;-0.28;54.72
38452;BME280;24231;52.514;13.438;2023-02-07T06:41:05;103787.41;;;0.34;52.98
38452;BME280;24231;52.514;13.438;2023-02-07T06:43:33;103788.30;;;0.24;52.82
38452;BME280;24231;52.514;13.438;2023-02-07T06:46:02;103795.60;;;0.34;52.96
38452;BME280;24231;52.514;13.438;2023-02-07T06:48:29;103796.55;;;-0.08;53.89
38452;BME280;24231;52.514;13.438;2023-02-07T06:50:56;103793.49;;;0.07;53.58
38452;BME280;24231;52.514;13.438;2023-02-07T06:53:23;103788.96;;;-0.45;55.57
38452;BME280;24231;52.514;13.438;2023-02-07T06:55:50;103787.22;;;0.23;53.27
38452;BME280;24231;52.514;13.438;2023-02-07T06:58:18;103788.01;;;0.56;52.65
38452;BME280;24231;52.514;13.438;2023-02-07T07:00:50;103789.97;;;0.53;52.75
38452;BME280;24231;52.514;13.438;2023-02-07T07:03:17;103784.52;;;-0.41;54.98
38452;BME280;24231;52.514;13.438;2023-02-07T07:05:44;103785.67;;;0.11;53.77
38452;BME280;24231;52.514;13.438;2023-02-07T07:08:12;103788.02;;;-0.24;54.85
38452;BME280;24231;52.514;13.438;2023-02-07T07:10:39;103790.00;;;0.43;54.20
38452;BME280;24231;52.514;13.438;2023-02-07T07:13:06;103793.19;;;0.47;55.46
38452;BME280;24231;52.514;13.438;2023-02-07T07:15:34;103791.07;;;0.51;56.39
38452;BME280;24231;52.514;13.438;2023-02-07T07:18:01;103788.98;;;0.55;56.30
38452;BME280;24231;52.514;13.438;2023-02-07T07:20:28;103787.76;;;-0.58;59.37
38452;BME280;24231;52.514;13.438;2023-02-07T07:22:56;103780.74;;;0.56;57.92
38452;BME280;24231;52.514;13.438;2023-02-07T07:25:23;103773.12;;;0.61;58.37
38452;BME280;24231;52.514;13.438;2023-02-07T07:27:51;103765.97;;;-0.43;61.79
38452;BME280;24231;52.514;13.438;2023-02-07T07:30:18;103760.22;;;1.20;55.98
38452;BME280;24231;52.514;13.438;2023-02-07T07:32:45;103766.64;;;1.06;58.50
38452;BME280;24231;52.514;13.438;2023-02-07T07:35:12;103765.68;;;1.36;58.49
38452;BME280;24231;52.514;13.438;2023-02-07T07:37:40;103767.13;;;1.90;54.52
38452;BME280;24231;52.514;13.438;2023-02-07T07:40:08;103768.33;;;1.57;57.84
38452;BME280;24231;52.514;13.438;2023-02-07T07:42:35;103767.17;;;2.14;54.65
38452;BME280;24231;52.514;13.438;2023-02-07T07:45:03;103770.39;;;2.28;55.60
38452;BME280;24231;52.514;13.438;2023-02-07T07:47:32;103769.14;;;2.57;53.18
38452;BME280;24231;52.514;13.438;2023-02-07T07:49:59;103767.39;;;2.76;52.34
38452;BME280;24231;52.514;13.438;2023-02-07T07:52:26;103771.79;;;2.91;52.23
38452;BME280;24231;52.514;13.438;2023-02-07T07:54:54;103771.71;;;3.13;51.34
38452;BME280;24231;52.514;13.438;2023-02-07T07:57:21;103773.21;;;3.00;50.14
38452;BME280;24231;52.514;13.438;2023-02-07T07:59:48;103772.70;;;3.15;51.26
38452;BME280;24231;52.514;13.438;2023-02-07T08:02:15;103779.74;;;3.09;49.82
38452;BME280;24231;52.514;13.438;2023-02-07T08:04:42;103780.28;;;3.06;49.41
38452;BME280;24231;52.514;13.438;2023-02-07T08:07:09;103782.83;;;3.10;49.71
38452;BME280;24231;52.514;13.438;2023-02-07T08:09:36;103787.63;;;3.58;48.68
38452;BME280;24231;52.514;13.438;2023-02-07T08:12:04;103793.92;;;3.87;48.45
38452;BME280;24231;52.514;13.438;2023-02-07T08:14:31;103786.47;;;3.44;47.93
38452;BME280;24231;52.514;13.438;2023-02-07T08:16:58;103786.09;;;3.65;48.75
38452;BME280;24231;52.514;13.438;2023-02-07T08:19:25;103788.82;;;4.03;47.79
38452;BME280;24231;52.514;13.438;2023-02-07T08:21:52;103789.78;;;4.30;47.47
38452;BME280;24231;52.514;13.438;2023-02-07T08:25:11;103786.98;;;4.28;47.21
38452;BME280;24231;52.514;13.438;2023-02-07T08:40:51;103782.49;;;4.60;45.48
38452;BME280;24231;52.514;13.438;2023-02-07T09:04:57;103777.37;;;5.38;43.46
38452;BME280;24231;52.514;13.438;2023-02-07T09:07:32;103771.32;;;5.40;41.33
38452;BME280;24231;52.514;13.438;2023-02-07T09:10:00;103772.72;;;5.55;40.79
38452;BME280;24231;52.514;13.438;2023-02-07T09:12:26;103770.96;;;5.69;40.82
38452;BME280;24231;52.514;13.438;2023-02-07T09:14:54;103768.60;;;5.70;40.30
38452;BME280;24231;52.514;13.438;2023-02-07T09:17:21;103767.28;;;4.77;41.60
38452;BME280;24231;52.514;13.438;2023-02-07T09:19:48;103765.31;;;5.43;40.20
38452;BME280;24231;52.514;13.438;2023-02-07T09:22:15;103765.33;;;6.70;39.42
38452;BME280;24231;52.514;13.438;2023-02-07T09:24:42;103772.55;;;6.14;39.46
38452;BME280;24231;52.514;13.438;2023-02-07T09:27:10;103774.46;;;6.66;39.63
38452;BME280;24231;52.514;13.438;2023-02-07T09:29:40;103780.21;;;6.49;40.59
38452;BME280;24231;52.514;13.438;2023-02-07T09:32:13;103779.96;;;6.57;39.85
38452;BME280;24231;52.514;13.438;2023-02-07T09:34:40;103778.68;;;6.56;39.25
38452;BME280;24231;52.514;13.438;2023-02-07T09:37:07;103776.79;;;6.64;38.61
38452;BME280;24231;52.514;13.438;2023-02-07T09:39:35;103775.15;;;6.88;38.87
38452;BME280;24231;52.514;13.438;2023-02-07T09:42:12;103777.40;;;7.14;38.76
38452;BME280;24231;52.514;13.438;2023-02-07T09:44:48;103787.07;;;6.59;37.73
38452;BME280;24231;52.514;13.438;2023-02-07T09:47:21;103785.37;;;6.93;38.55
38452;BME280;24231;52.514;13.438;2023-02-07T09:49:54;103782.12;;;7.19;38.49
38452;BME280;24231;52.514;13.438;2023-02-07T09:52:27;103784.81;;;7.24;37.63
38452;BME280;24231;52.514;13.438;2023-02-07T09:54:56;103787.27;;;6.85;37.04
38452;BME280;24231;52.514;13.438;2023-02-07T09:57:29;103787.90;;;6.86;37.89
38452;BME280;24231;52.514;13.438;2023-02-07T10:00:00;103786.68;;;7.20;37.52
38452;BME280;24231;52.514;13.438;2023-02-07T10:02:31;103793.22;;;6.93;37.50
38452;BME280;24231;52.514;13.438;2023-02-07T10:05:15;103808.85;;;6.50;37.54
38452;BME280;24231;52.514;13.438;2023-02-07T10:07:44;103807.46;;;6.37;37.40
38452;BME280;24231;52.514;13.438;2023-02-07T10:10:25;103815.50;;;6.60;37.08
38452;BME280;24231;52.514;13.438;2023-02-07T10:13:11;103819.98;;;6.07;37.88
38452;BME280;24231;52.514;13.438;2023-02-07T10:16:12;103817.90;;;6.25;36.50
38452;BME280;24231;52.514;13.438;2023-02-07T10:49:17;103805.79;;;6.19;37.13
38452;BME280;24231;52.514;13.438;2023-02-07T10:51:45;103804.14;;;6.38;37.23
38452;BME280;24231;52.514;13.438;2023-02-07T10:54:15;103802.11;;;6.03;36.98
38452;BME280;24231;52.514;13.438;2023-02-07T10:56:44;103803.25;;;5.92;37.51
38452;BME280;24231;52.514;13.438;2023-02-07T10:59:44;103809.11;;;4.28;40.25
38452;BME280;24231;52.514;13.438;2023-02-07T11:02:47;103800.87;;;6.03;38.15
38452;BME280;24231;52.514;13.438;2023-02-07T11:05:50;103796.46;;;6.52;37.96
38452;BME280;24231;52.514;13.438;2023-02-07T11:08:21;103798.48;;;6.27;38.02
38452;BME280;24231;52.514;13.438;2023-02-07T11:10:54;103797.72;;;6.74;36.96
38452;BME280;24231;52.514;13.438;2023-02-07T11:13:28;103796.88;;;6.82;36.96
38452;BME280;24231;52.514;13.438;2023-02-07T11:15:59;103793.83;;;6.82;37.11
38452;BME280;24231;52.514;13.438;2023-02-07T11:29:22;103796.15;;;7.06;35.96
38452;BME280;24231;52.514;13.438;2023-02-07T11:31:52;103792.80;;;6.77;35.76
38452;BME280;24231;52.514;13.438;2023-02-07T11:34:38;103796.67;;;6.16;36.62
38452;BME280;24231;52.514;13.438;2023-02-07T11:37:17;103798.58;;;6.38;35.97
38452;BME280;24231;52.514;13.438;2023-02-07T11:39:46;103788.95;;;6.63;36.40
38452;BME280;24231;52.514;13.438;2023-02-07T11:42:17;103787.93;;;6.68;35.48
38452;BME280;24231;52.514;13.438;2023-02-07T11:44:54;103779.69;;;6.90;35.19
38452;BME280;24231;52.514;13.438;2023-02-07T11:47:24;103772.59;;;7.06;35.26
38452;BME280;24231;52.514;13.438;2023-02-07T11:49:56;103777.73;;;7.00;35.76
38452;BME280;24231;52.514;13.438;2023-02-07T11:52:24;103775.49;;;6.80;34.27
38452;BME280;24231;52.514;13.438;2023-02-07T12:12:50;103758.29;;;6.06;36.43
38452;BME280;24231;52.514;13.438;2023-02-07T12:15:22;103754.34;;;6.23;35.94
38452;BME280;24231;52.514;13.438;2023-02-07T12:17:57;103753.50;;;7.00;35.00
38452;BME280;24231;52.514;13.438;2023-02-07T12:20:27;103759.12;;;7.13;34.97
38452;BME280;24231;52.514;13.438;2023-02-07T12:22:59;103756.05;;;6.88;34.88
38452;BME280;24231;52.514;13.438;2023-02-07T12:25:36;103752.68;;;6.41;35.40
38452;BME280;24231;52.514;13.438;2023-02-07T12:28:13;103750.84;;;6.42;35.56
38452;BME280;24231;52.514;13.438;2023-02-07T12:30:48;103743.77;;;6.39;35.66
38452;BME280;24231;52.514;13.438;2023-02-07T12:33:26;103734.72;;;6.73;34.67
38452;BME280;24231;52.514;13.438;2023-02-07T12:35:59;103733.99;;;6.59;35.05
38452;BME280;24231;52.514;13.438;2023-02-07T12:38:35;103734.99;;;6.67;35.05
38452;BME280;24231;52.514;13.438;2023-02-07T12:41:09;103745.59;;;5.46;36.67
38452;BME280;24231;52.514;13.438;2023-02-07T12:43:43;103736.19;;;6.22;35.04
38452;BME280;24231;52.514;13.438;2023-02-07T12:46:20;103722.82;;;6.35;35.19
38452;BME280;24231;52.514;13.438;2023-02-07T12:49:12;103717.34;;;6.31;34.77
38452;BME280;24231;52.514;13.438;2023-02-07T12:51:50;103711.34;;;6.27;35.14
38452;BME280;24231;52.514;13.438;2023-02-07T12:54:32;103706.97;;;6.28;35.50
38452;BME280;24231;52.514;13.438;2023-02-07T12:57:06;103702.46;;;6.51;35.29
38452;BME280;24231;52.514;13.438;2023-02-07T12:59:43;103709.52;;;5.12;37.49
38452;BME280;24231;52.514;13.438;2023-02-07T13:02:29;103710.43;;;5.33;37.03
38452;BME280;24231;52.514;13.438;2023-02-07T13:05:16;103716.79;;;5.77;35.75
38452;BME280;24231;52.514;13.438;2023-02-07T13:07:56;103712.37;;;5.86;35.97
38452;BME280;24231;52.514;13.438;2023-02-07T13:10:33;103712.72;;;5.66;36.87
38452;BME280;24231;52.514;13.438;2023-02-07T13:13:08;103700.37;;;6.91;35.16
38452;BME280;24231;52.514;13.438;2023-02-07T13:15:45;103694.88;;;6.73;34.97
38452;BME280;24231;52.514;13.438;2023-02-07T13:18:19;103695.08;;;6.98;34.70
38452;BME280;24231;52.514;13.438;2023-02-07T13:20:56;103697.08;;;6.99;34.39
38452;BME280;24231;52.514;13.438;2023-02-07T13:23:29;103706.58;;;4.31;37.83
38452;BME280;24231;52.514;13.438;2023-02-07T13:26:00;103713.61;;;5.23;36.56
38452;BME280;24231;52.514;13.438;2023-02-07T13:28:35;103709.70;;;4.58;37.61
38452;BME280;24231;52.514;13.438;2023-02-07T13:31:08;103707.24;;;5.02;37.00
38452;BME280;24231;52.514;13.438;2023-02-07T13:33:38;103704.18;;;5.40;36.27
38452;BME280;24231;52.514;13.438;2023-02-07T13:36:21;103703.57;;;5.69;35.87
38452;BME280;24231;52.514;13.438;2023-02-07T13:39:02;103697.18;;;4.25;38.22
38452;BME280;24231;52.514;13.438;2023-02-07T13:41:42;103696.50;;;3.33;39.89
38452;BME280;24231;52.514;13.438;2023-02-07T13:44:18;103696.44;;;4.12;38.88
38452;BME280;24231;52.514;13.438;2023-02-07T13:47:00;103691.08;;;3.88;38.90
38452;BME280;24231;52.514;13.438;2023-02-07T13:49:41;103685.84;;;5.77;35.45
38452;BME280;24231;52.514;13.438;2023-02-07T13:52:16;103686.50;;;4.45;37.67
38452;BME280;24231;52.514;13.438;2023-02-07T13:54:53;103687.02;;;5.55;36.14
38452;BME280;24231;52.514;13.438;2023-02-07T13:57:39;103676.30;;;6.71;34.35
38452;BME280;24231;52.514;13.438;2023-02-07T14:00:18;103674.91;;;6.86;33.46
38452;BME280;24231;52.514;13.438;2023-02-07T14:02:49;103675.79;;;4.64;36.47
38452;BME280;24231;52.514;13.438;2023-02-07T14:05:21;103676.47;;;3.84;38.61
38452;BME280;24231;52.514;13.438;2023-02-07T14:08:20;103671.14;;;4.69;37.03
38452;BME280;24231;52.514;13.438;2023-02-07T14:10:49;103671.39;;;5.27;35.80
38452;BME280;24231;52.514;13.438;2023-02-07T14:13:26;103669.37;;;5.69;35.11
38452;BME280;24231;52.514;13.438;2023-02-07T14:16:00;103674.69;;;3.69;38.35
38452;BME280;24231;52.514;13.438;2023-02-07T14:18:45;103671.72;;;4.70;37.42
38452;BME280;24231;52.514;13.438;2023-02-07T14:21:40;103672.53;;;3.94;38.72
38452;BME280;24231;52.514;13.438;2023-02-07T14:24:48;103671.37;;;5.19;36.54
38452;BME280;24231;52.514;13.438;2023-02-07T14:27:27;103667.88;;;5.24;36.35
38452;BME280;24231;52.514;13.438;2023-02-07T14:30:08;103667.08;;;5.80;35.46
38452;BME280;24231;52.514;13.438;2023-02-07T14:32:42;103666.27;;;6.46;34.29
38452;BME280;24231;52.514;13.438;2023-02-07T14:35:32;103671.57;;;6.93;33.68
38452;BME280;24231;52.514;13.438;2023-02-07T14:38:08;103681.87;;;5.46;35.77
38452;BME280;24231;52.514;13.438;2023-02-07T14:40:51;103670.65;;;7.11;33.31
38452;BME280;24231;52.514;13.438;2023-02-07T14:43:23;103671.55;;;5.74;35.68
38452;BME280;24231;52.514;13.438;2023-02-07T14:46:06;103664.89;;;6.07;35.14
38452;BME280;24231;52.514;13.438;2023-02-07T14:49:19;103666.88;;;4.86;36.79
38452;BME280;24231;52.514;13.438;2023-02-07T14:53:25;103666.26;;;5.17;36.74